Time;durP1;ratioP1;P1;durP2;ratioP2;P2;SDS_P1;SDS_P2;PMS_P1;PMS_P2;Temp;Humidity;BMP_temperature;BMP_pressure;BME280_temperature;BME280_humidity;BME280_pressure;Samples;Min_cycle;Max_cycle;Signal;HPM_P1;HPM_P2
2023/09/15 00:51:17;;;;;;;4.03;2.20;;;;;;;;;;4464278;22;20561;-76
2023/09/15 00:53:57;;;;;;;3.70;1.77;;;;;;;;;;5040245;28;20454;-76
2023/09/15 00:56:28;;;;;;;5.20;2.50;;;;;;;;;;5044603;28;20480;-76
2023/09/15 00:59:00;;;;;;;4.30;2.20;;;;;;;;;;5058060;28;20488;-76
2023/09/15 01:01:29;;;;;;;4.10;2.43;;;;;;;;;;5059548;28;20504;-77
2023/09/15 01:03:57;;;;;;;5.90;2.47;;;;;;;;;;5057758;28;20527;-76
2023/09/15 01:06:27;;;;;;;4.63;2.63;;;;;;;;;;5059244;28;20453;-76
2023/09/15 01:08:57;;;;;;;5.93;2.00;;;;;;;;;;5058106;28;20464;-76
2023/09/15 01:11:28;;;;;;;5.00;2.07;;;;;;;;;;5055881;28;20485;-76
2023/09/15 01:13:57;;;;;;;6.40;2.47;;;;;;;;;;5038054;28;20477;-75
2023/09/15 01:16:32;;;;;;;2.93;1.67;;;;;;;;;;5038958;28;20442;-74
2023/09/15 01:19:05;;;;;;;3.67;1.83;;;;;;;;;;5039979;28;20541;-75
2023/09/15 01:21:54;;;;;;;4.47;1.90;;;;;;;;;;5040906;28;20455;-74
2023/09/15 01:24:52;;;;;;;3.60;1.87;;;;;;;;;;5007890;28;20466;-76
2023/09/15 01:27:37;;;;;;;3.60;2.00;;;;;;;;;;5039899;28;20607;-74
2023/09/15 01:30:10;;;;;;;4.07;2.20;;;;;;;;;;5041879;28;20490;-75
2023/09/15 01:32:38;;;;;;;3.30;1.73;;;;;;;;;;5044456;28;20454;-77
2023/09/15 01:35:06;;;;;;;3.80;1.80;;;;;;;;;;5043090;28;20457;-75
2023/09/15 01:37:36;;;;;;;4.27;1.60;;;;;;;;;;5044265;28;20477;-76
2023/09/15 01:40:13;;;;;;;5.33;2.03;;;;;;;;;;5042390;28;20533;-75
2023/09/15 01:42:42;;;;;;;4.70;1.70;;;;;;;;;;5040610;28;20454;-75
2023/09/15 01:45:14;;;;;;;3.83;1.50;;;;;;;;;;5040867;28;20500;-75
2023/09/15 01:47:42;;;;;;;3.93;1.90;;;;;;;;;;5041412;28;20454;-75
2023/09/15 01:50:14;;;;;;;5.93;1.77;;;;;;;;;;5039369;28;20497;-75
2023/09/15 01:52:46;;;;;;;8.13;1.60;;;;;;;;;;5038791;28;20497;-74
2023/09/15 01:55:15;;;;;;;3.30;1.50;;;;;;;;;;5039759;28;20521;-74
2023/09/15 01:57:49;;;;;;;5.77;2.10;;;;;;;;;;5038814;28;20454;-75
2023/09/15 02:00:19;;;;;;;5.07;1.87;;;;;;;;;;5039428;28;20497;-75
2023/09/15 02:02:47;;;;;;;3.27;1.53;;;;;;;;;;5039786;28;20454;-75
2023/09/15 02:05:20;;;;;;;6.70;1.60;;;;;;;;;;5038938;28;20456;-75
2023/09/15 02:07:48;;;;;;;2.83;1.40;;;;;;;;;;5042099;28;20499;-76
2023/09/15 02:10:17;;;;;;;6.50;2.33;;;;;;;;;;5038813;28;20586;-74
2023/09/15 02:12:46;;;;;;;3.17;1.80;;;;;;;;;;5050867;28;20466;-75
2023/09/15 02:15:14;;;;;;;5.40;2.10;;;;;;;;;;5057640;28;20465;-75
2023/09/15 02:17:47;;;;;;;5.63;1.90;;;;;;;;;;5057459;28;20477;-77
2023/09/15 02:20:23;;;;;;;5.43;2.40;;;;;;;;;;5039497;28;20533;-76
2023/09/15 02:22:57;;;;;;;3.47;1.90;;;;;;;;;;5039172;28;20582;-78
2023/09/15 02:25:25;;;;;;;3.17;1.70;;;;;;;;;;5037765;28;20494;-76
2023/09/15 02:27:55;;;;;;;5.30;2.40;;;;;;;;;;5038054;28;20493;-75
2023/09/15 02:30:26;;;;;;;3.90;2.23;;;;;;;;;;5039161;28;20486;-76
2023/09/15 02:33:02;;;;;;;5.10;1.40;;;;;;;;;;5037796;28;20462;-77
2023/09/15 02:35:52;;;;;;;5.10;1.40;;;;;;;;;;5052929;28;20523;-76
2023/09/15 02:38:22;;;;;;;4.70;2.07;;;;;;;;;;5039634;28;20772;-76
2023/09/15 02:40:57;;;;;;;3.33;1.60;;;;;;;;;;5046812;28;20511;-76
2023/09/15 02:43:28;;;;;;;3.80;1.70;;;;;;;;;;5057668;28;20564;-75
2023/09/15 02:46:00;;;;;;;4.07;1.90;;;;;;;;;;5057080;28;20556;-76
2023/09/15 02:48:42;;;;;;;3.90;1.90;;;;;;;;;;5058421;28;20461;-76
2023/09/15 02:51:21;;;;;;;4.83;2.00;;;;;;;;;;5057073;28;20469;-76
2023/09/15 02:54:09;;;;;;;3.00;1.60;;;;;;;;;;5031344;28;20478;-76
2023/09/15 02:56:37;;;;;;;4.07;2.20;;;;;;;;;;5038131;28;20454;-75
2023/09/15 02:59:14;;;;;;;3.70;2.30;;;;;;;;;;5037566;28;20465;-75
2023/09/15 03:01:46;;;;;;;4.43;2.30;;;;;;;;;;5039910;28;20481;-76
2023/09/15 03:04:29;;;;;;;3.70;1.83;;;;;;;;;;5036380;28;20463;-77
2023/09/15 03:07:06;;;;;;;5.90;2.83;;;;;;;;;;5007505;28;20459;-75
2023/09/15 03:09:34;;;;;;;4.10;2.37;;;;;;;;;;5031215;28;20453;-75
2023/09/15 03:12:02;;;;;;;6.63;2.13;;;;;;;;;;5040311;28;20486;-76
2023/09/15 03:14:31;;;;;;;6.17;2.67;;;;;;;;;;5038336;28;20473;-76
2023/09/15 03:17:00;;;;;;;5.80;2.00;;;;;;;;;;5036016;28;20998;-74
2023/09/15 03:19:31;;;;;;;10.20;2.57;;;;;;;;;;5017669;28;20653;-75
2023/09/15 03:22:06;;;;;;;5.70;2.40;;;;;;;;;;5000962;28;20461;-76
2023/09/15 03:24:36;;;;;;;3.77;1.70;;;;;;;;;;5035479;28;20503;-75
2023/09/15 03:27:21;;;;;;;3.43;1.60;;;;;;;;;;5024960;28;20467;-75
2023/09/15 03:29:59;;;;;;;3.10;1.60;;;;;;;;;;5024538;28;20469;-75
2023/09/15 03:32:27;;;;;;;4.03;1.40;;;;;;;;;;5040085;28;20493;-76
2023/09/15 03:34:55;;;;;;;3.37;1.53;;;;;;;;;;5040477;28;20591;-75
2023/09/15 03:37:36;;;;;;;5.03;1.80;;;;;;;;;;5039394;28;20466;-76
2023/09/15 03:40:12;;;;;;;7.67;1.60;;;;;;;;;;5041645;28;20446;-76
2023/09/15 03:42:46;;;;;;;3.50;1.60;;;;;;;;;;5033963;28;20454;-75
2023/09/15 03:45:14;;;;;;;7.60;1.87;;;;;;;;;;5019964;28;20463;-76
2023/09/15 03:47:42;;;;;;;7.03;1.80;;;;;;;;;;5029682;28;20473;-76
2023/09/15 03:50:19;;;;;;;3.40;1.60;;;;;;;;;;5039447;28;20454;-75
2023/09/15 03:52:49;;;;;;;3.83;1.90;;;;;;;;;;5051788;28;20495;-74
2023/09/15 03:55:18;;;;;;;5.90;1.77;;;;;;;;;;5058660;28;20869;-75
2023/09/15 03:57:51;;;;;;;2.80;1.70;;;;;;;;;;5044759;28;20482;-76
2023/09/15 04:00:21;;;;;;;3.70;1.87;;;;;;;;;;5054056;28;20594;-75
2023/09/15 04:02:51;;;;;;;4.70;1.77;;;;;;;;;;5055646;28;22818;-77
2023/09/15 04:05:22;;;;;;;5.63;1.63;;;;;;;;;;5044409;28;20453;-77
2023/09/15 04:07:51;;;;;;;5.40;1.77;;;;;;;;;;5057065;28;20547;-76
2023/09/15 04:10:20;;;;;;;5.95;2.45;;;;;;;;;;5055824;28;20445;-77
2023/09/15 04:12:48;;;;;;;3.90;1.90;;;;;;;;;;5054274;28;20450;-74
2023/09/15 04:15:17;;;;;;;4.40;2.27;;;;;;;;;;5055632;28;20734;-74
2023/09/15 04:17:47;;;;;;;5.07;2.30;;;;;;;;;;5036546;28;20851;-74
2023/09/15 04:20:20;;;;;;;4.47;2.30;;;;;;;;;;5040170;28;20485;-75
2023/09/15 04:23:11;;;;;;;6.33;2.40;;;;;;;;;;5036431;28;21062;-75
2023/09/15 04:25:43;;;;;;;6.63;2.20;;;;;;;;;;5037303;28;20542;-75
2023/09/15 04:28:18;;;;;;;3.77;1.80;;;;;;;;;;5037894;28;20711;-75
2023/09/15 04:33:37;;;;;;;6.97;1.70;;;;;;;;;;5034830;28;20441;-74
2023/09/15 04:36:06;;;;;;;4.50;2.00;;;;;;;;;;5039487;28;20855;-76
2023/09/15 04:38:42;;;;;;;4.30;2.23;;;;;;;;;;5038336;28;20722;-75
2023/09/15 04:51:43;;;;;;;4.93;1.80;;;;;;;;;;5056154;28;20719;-75
2023/09/15 04:54:19;;;;;;;7.50;2.60;;;;;;;;;;5038376;28;20575;-76
2023/09/15 04:56:56;;;;;;;6.80;2.63;;;;;;;;;;5037707;28;20473;-75
2023/09/15 04:59:33;;;;;;;5.70;1.93;;;;;;;;;;5048569;28;20464;-76
2023/09/15 05:02:10;;;;;;;4.50;2.10;;;;;;;;;;5043741;28;20609;-76
2023/09/15 05:04:39;;;;;;;4.60;2.30;;;;;;;;;;5038431;28;20520;-76
2023/09/15 05:07:34;;;;;;;4.50;2.40;;;;;;;;;;5037511;28;20454;-75
2023/09/15 05:13:06;;;;;;;3.03;1.60;;;;;;;;;;5028721;28;20458;-76
2023/09/15 05:15:59;;;;;;;4.10;2.07;;;;;;;;;;5034097;28;20458;-76
2023/09/15 05:18:32;;;;;;;7.47;2.00;;;;;;;;;;5032299;28;20909;-74
2023/09/15 05:21:07;;;;;;;7.43;2.17;;;;;;;;;;5035194;28;20862;-75
2023/09/15 05:23:35;;;;;;;4.10;2.20;;;;;;;;;;5031034;28;20446;-75
2023/09/15 05:26:08;;;;;;;5.80;2.70;;;;;;;;;;5033251;28;21090;-75
2023/09/15 05:28:43;;;;;;;3.63;2.20;;;;;;;;;;5034017;28;20469;-76
2023/09/15 05:31:14;;;;;;;4.70;2.03;;;;;;;;;;5032010;28;20549;-76
2023/09/15 05:33:43;;;;;;;6.60;4.20;;;;;;;;;;5041450;28;20461;-76
2023/09/15 05:36:11;;;;;;;3.63;1.97;;;;;;;;;;5038505;28;20466;-75
2023/09/15 05:38:40;;;;;;;3.70;2.03;;;;;;;;;;5033210;28;20462;-75
2023/09/15 05:41:14;;;;;;;3.80;2.20;;;;;;;;;;5047800;28;20461;-75
2023/09/15 05:43:43;;;;;;;5.07;2.40;;;;;;;;;;5045820;28;20906;-73
2023/09/15 05:49:16;;;;;;;7.13;2.53;;;;;;;;;;5036598;28;20438;-74
2023/09/15 05:51:55;;;;;;;4.00;2.17;;;;;;;;;;5018971;28;20486;-77
2023/09/15 05:54:29;;;;;;;5.00;2.50;;;;;;;;;;5021782;28;20457;-74
2023/09/15 05:57:07;;;;;;;4.40;2.73;;;;;;;;;;5030954;28;20454;-74
2023/09/15 05:59:38;;;;;;;5.60;2.57;;;;;;;;;;5031445;28;20446;-74
2023/09/15 06:02:16;;;;;;;6.13;2.37;;;;;;;;;;5032363;28;20451;-76
2023/09/15 06:04:46;;;;;;;6.03;2.77;;;;;;;;;;5031423;28;20446;-75
2023/09/15 06:07:33;;;;;;;4.40;2.47;;;;;;;;;;5031435;28;20454;-74
2023/09/15 06:10:11;;;;;;;6.90;2.93;;;;;;;;;;5062608;28;20575;-77
2023/09/15 06:12:42;;;;;;;6.33;3.10;;;;;;;;;;5067810;28;20587;-74
2023/09/15 06:15:31;;;;;;;11.17;3.70;;;;;;;;;;5063723;28;20500;-75
2023/09/15 06:18:07;;;;;;;5.07;2.50;;;;;;;;;;5050412;28;21013;-74
2023/09/15 06:20:45;;;;;;;6.90;2.63;;;;;;;;;;5068474;28;20616;-73
2023/09/15 06:23:30;;;;;;;;;;;;;;;;;;;;;
2023/09/15 06:26:01;;;;;;;6.83;3.03;;;;;;;;;;5068304;28;20433;-75
2023/09/15 06:28:50;;;;;;;;;;;;;;;;;;;;;
2023/09/15 06:31:34;;;;;;;4.80;2.60;;;;;;;;;;5065876;28;20498;-74
2023/09/15 06:34:06;;;;;;;6.47;2.87;;;;;;;;;;5058530;28;20456;-74
2023/09/15 06:36:39;;;;;;;6.70;2.37;;;;;;;;;;5059973;28;20525;-74
2023/09/15 06:39:10;;;;;;;4.40;2.10;;;;;;;;;;5080047;28;20471;-76
2023/09/15 06:41:50;;;;;;;7.57;2.70;;;;;;;;;;5073630;28;20499;-76
2023/09/15 06:44:22;;;;;;;4.47;2.70;;;;;;;;;;5089098;28;20482;-75
2023/09/15 06:46:55;;;;;;;5.80;2.80;;;;;;;;;;5079134;28;20472;-75
2023/09/15 06:49:38;;;;;;;4.80;2.90;;;;;;;;;;5077013;28;20512;-76
2023/09/15 06:52:15;;;;;;;4.60;2.87;;;;;;;;;;5081854;28;20573;-75
2023/09/15 06:58:03;;;;;;;4.80;2.43;;;;;;;;;;5070247;28;20460;-77
2023/09/15 07:00:48;;;;;;;8.07;3.50;;;;;;;;;;5074582;28;20869;-78
2023/09/15 07:05:57;;;;;;;5.13;2.50;;;;;;;;;;5097329;28;20489;-74
2023/09/15 07:14:38;;;;;;;5.50;2.33;;;;;;;;;;5096443;28;20458;-76
2023/09/15 07:17:33;;;;;;;7.20;3.07;;;;;;;;;;5095297;28;20458;-76
2023/09/15 07:20:24;;;;;;;4.93;3.07;;;;;;;;;;5089587;28;21132;-75
2023/09/15 07:26:02;;;;;;;4.53;2.80;;;;;;;;;;5064499;28;20444;-76
2023/09/15 07:28:31;;;;;;;5.37;2.10;;;;;;;;;;5073782;28;20574;-77
2023/09/15 07:31:08;;;;;;;5.47;2.70;;;;;;;;;;5075089;28;20452;-77
2023/09/15 07:33:46;;;;;;;6.40;3.30;;;;;;;;;;5080672;28;20498;-77
2023/09/15 07:36:26;;;;;;;4.80;3.13;;;;;;;;;;5081606;28;20598;-78
2023/09/15 07:39:11;;;;;;;5.00;2.70;;;;;;;;;;5078843;28;20494;-78
2023/09/15 07:41:57;;;;;;;5.67;2.57;;;;;;;;;;5092496;28;20656;-78
2023/09/15 07:48:04;;;;;;;4.40;1.97;;;;;;;;;;5086322;28;21829;-77
2023/09/15 07:57:00;;;;;;;4.10;2.53;;;;;;;;;;5063370;28;20449;-76
2023/09/15 07:59:40;;;;;;;7.43;2.50;;;;;;;;;;5073210;28;20463;-77
2023/09/15 08:02:09;;;;;;;3.73;1.80;;;;;;;;;;5065359;28;20551;-76
2023/09/15 08:04:58;;;;;;;4.53;2.20;;;;;;;;;;5079050;28;21070;-76
2023/09/15 08:07:45;;;;;;;;;;;;;;;;;;;;;
2023/09/15 08:13:48;;;;;;;7.53;3.53;;;;;;;;;;5096665;28;20785;-75
2023/09/15 08:16:25;;;;;;;5.80;2.77;;;;;;;;;;5094506;28;20485;-74
2023/09/15 08:18:53;;;;;;;5.90;2.37;;;;;;;;;;5081928;28;20468;-74
2023/09/15 08:21:25;;;;;;;4.97;2.60;;;;;;;;;;5078123;28;20460;-75
2023/09/15 08:24:24;;;;;;;4.53;2.10;;;;;;;;;;5084870;28;20526;-74
2023/09/15 08:27:10;;;;;;;4.73;2.17;;;;;;;;;;5079727;28;20529;-74
2023/09/15 08:35:56;;;;;;;4.13;2.13;;;;;;;;;;5050620;28;20554;-76
2023/09/15 08:41:35;;;;;;;5.10;2.40;;;;;;;;;;5073574;28;20491;-75
2023/09/15 08:44:16;;;;;;;3.23;1.63;;;;;;;;;;5084221;28;20474;-75
2023/09/15 08:52:47;;;;;;;4.30;1.90;;;;;;;;;;5062062;28;20573;-74
2023/09/15 09:13:57;;;;;;;6.37;3.00;;;;;;;;;;5069268;28;20753;-74
2023/09/15 09:16:31;;;;;;;5.43;2.17;;;;;;;;;;5058666;28;20464;-75
2023/09/15 09:19:15;;;;;;;5.60;2.87;;;;;;;;;;5053992;28;21044;-75
2023/09/15 09:21:50;;;;;;;4.57;2.67;;;;;;;;;;5039714;28;20503;-77
2023/09/15 09:24:35;;;;;;;6.70;2.63;;;;;;;;;;5076743;28;20483;-74
2023/09/15 09:27:21;;;;;;;4.13;2.00;;;;;;;;;;5071791;28;20460;-74
2023/09/15 09:33:27;;;;;;;5.13;2.40;;;;;;;;;;4986809;28;20487;-74
2023/09/15 09:36:05;;;;;;;3.80;1.83;;;;;;;;;;5065993;28;20487;-75
2023/09/15 09:45:03;;;;;;;4.70;2.53;;;;;;;;;;5058893;28;20499;-77
2023/09/15 09:48:08;;;;;;;3.90;2.60;;;;;;;;;;5070195;28;20491;-77
2023/09/15 09:54:12;;;;;;;3.93;2.40;;;;;;;;;;5057703;28;20570;-77
2023/09/15 11:37:17;;;;;;;5.70;2.80;;;;;;;;;;5071003;28;20552;-78
2023/09/15 13:32:22;;;;;;;5.13;2.10;;;;;;;;;;5059826;28;20593;-78
2023/09/15 14:33:18;;;;;;;4.30;1.80;;;;;;;;;;5079748;28;20477;-77
2023/09/15 15:03:05;;;;;;;;;;;;;;;;;;;;;
2023/09/15 15:26:28;;;;;;;;;;;;;;;;;;;;;
2023/09/15 15:46:51;;;;;;;;;;;;;;;;;;;;;
2023/09/15 15:55:24;;;;;;;12.47;5.40;;;;;;;;;;5072683;28;20774;-77
2023/09/15 16:47:00;;;;;;;4.70;2.63;;;;;;;;;;5015423;28;20453;-77
2023/09/15 16:53:07;;;;;;;4.90;2.20;;;;;;;;;;5071718;28;20498;-77
2023/09/15 17:45:30;;;;;;;5.70;3.03;;;;;;;;;;5024448;28;20495;-75
2023/09/15 17:56:25;;;;;;;5.37;3.33;;;;;;;;;;5068279;28;20671;-76
2023/09/15 18:22:31;;;;;;;4.20;2.67;;;;;;;;;;4947436;28;20217;-76
2023/09/15 18:28:08;;;;;;;6.10;3.27;;;;;;;;;;5063828;28;20496;-74
2023/09/15 18:30:50;;;;;;;4.83;2.57;;;;;;;;;;5049591;28;20464;-77
2023/09/15 18:36:41;;;;;;;4.70;2.57;;;;;;;;;;5046720;28;20855;-76
2023/09/15 18:45:37;;;;;;;4.60;2.90;;;;;;;;;;5065153;28;20436;-75
2023/09/15 18:48:19;;;;;;;6.03;3.30;;;;;;;;;;5059143;28;20437;-76
2023/09/15 18:51:14;;;;;;;4.20;2.73;;;;;;;;;;5055735;28;20474;-74
2023/09/15 18:53:47;;;;;;;4.30;2.77;;;;;;;;;;5053804;28;20539;-76
2023/09/15 18:56:27;;;;;;;6.73;3.37;;;;;;;;;;5052937;28;20568;-75
2023/09/15 19:05:12;;;;;;;4.50;2.67;;;;;;;;;;5087698;28;20485;-75
2023/09/15 19:07:46;;;;;;;3.90;2.37;;;;;;;;;;5026102;28;20469;-75
2023/09/15 19:10:29;;;;;;;;;;;;;;;;;;;;;
2023/09/15 19:16:22;;;;;;;6.50;3.57;;;;;;;;;;5054732;28;20859;-74
2023/09/15 19:18:51;;;;;;;4.90;2.47;;;;;;;;;;5090572;28;20582;-74
2023/09/15 19:21:22;;;;;;;5.07;2.77;;;;;;;;;;5089771;28;20741;-74
2023/09/15 19:23:59;;;;;;;4.67;3.73;;;;;;;;;;5087972;28;20439;-75
2023/09/15 19:26:43;;;;;;;6.43;2.83;;;;;;;;;;5089477;28;20447;-75
2023/09/15 19:29:26;;;;;;;8.90;3.47;;;;;;;;;;5075708;28;20473;-73
2023/09/15 19:34:43;;;;;;;5.77;3.10;;;;;;;;;;5069906;28;20480;-74
2023/09/15 19:37:45;;;;;;;6.60;3.33;;;;;;;;;;5068207;28;20513;-74
2023/09/15 19:40:18;;;;;;;5.77;3.27;;;;;;;;;;5072503;28;20458;-75
2023/09/15 19:42:56;;;;;;;5.80;3.60;;;;;;;;;;5063974;28;20460;-75
2023/09/15 19:49:00;;;;;;;5.13;2.57;;;;;;;;;;5041879;28;20693;-75
2023/09/15 19:51:58;;;;;;;5.03;2.40;;;;;;;;;;5074030;28;20456;-75
2023/09/15 19:58:17;;;;;;;;;;;;;;;;;;;;;
2023/09/15 20:01:04;;;;;;;5.23;3.40;;;;;;;;;;5051628;28;20537;-75
2023/09/15 20:03:37;;;;;;;7.00;3.50;;;;;;;;;;5055411;28;20504;-75
2023/09/15 20:06:41;;;;;;;4.80;2.93;;;;;;;;;;5073767;28;20512;-74
2023/09/15 20:09:20;;;;;;;4.10;2.40;;;;;;;;;;5074281;28;20483;-74
2023/09/15 20:12:00;;;;;;;4.60;3.10;;;;;;;;;;5075840;28;20460;-75
2023/09/15 20:14:34;;;;;;;6.83;3.13;;;;;;;;;;5072296;28;20585;-74
2023/09/15 20:20:36;;;;;;;4.00;2.33;;;;;;;;;;5072274;28;20492;-75
2023/09/15 20:32:08;;;;;;;5.70;3.40;;;;;;;;;;5055473;28;20434;-75
2023/09/15 20:43:22;;;;;;;7.17;5.63;;;;;;;;;;5455668;22;20881;-74
2023/09/15 20:45:57;;;;;;;10.73;8.33;;;;;;;;;;5052629;28;20661;-75
2023/09/15 20:48:25;;;;;;;12.17;7.80;;;;;;;;;;5040865;28;20456;-73
2023/09/15 20:53:47;;;;;;;12.27;7.73;;;;;;;;;;4991507;28;20458;-74
2023/09/15 20:56:51;;;;;;;16.03;9.00;;;;;;;;;;5033275;28;20452;-75
2023/09/15 21:18:07;;;;;;;7.87;4.83;;;;;;;;;;4968879;28;20653;-77
2023/09/15 21:20:51;;;;;;;6.40;4.50;;;;;;;;;;5011912;28;20465;-74
2023/09/15 21:23:27;;;;;;;4.63;3.40;;;;;;;;;;4999042;28;20465;-76
2023/09/15 21:26:04;;;;;;;6.47;4.30;;;;;;;;;;5031513;28;20619;-75
2023/09/15 21:28:35;;;;;;;12.80;4.47;;;;;;;;;;5050761;28;20441;-74
2023/09/15 21:31:16;;;;;;;8.50;4.53;;;;;;;;;;5050905;28;20552;-74
2023/09/15 21:33:54;;;;;;;9.70;4.80;;;;;;;;;;5048790;28;20466;-74
2023/09/15 21:36:25;;;;;;;8.93;6.20;;;;;;;;;;5051461;28;20441;-74
2023/09/15 21:39:04;;;;;;;8.87;4.70;;;;;;;;;;5050734;28;20847;-75
2023/09/15 21:44:09;;;;;;;8.40;5.10;;;;;;;;;;5136834;23;20478;-78
2023/09/15 21:46:45;;;;;;;11.30;6.27;;;;;;;;;;5105891;28;20456;-79
2023/09/15 21:49:20;;;;;;;9.27;4.67;;;;;;;;;;5102809;28;20467;-78
2023/09/15 21:51:54;;;;;;;6.80;4.00;;;;;;;;;;5098930;28;20471;-78
2023/09/15 21:54:25;;;;;;;6.40;4.30;;;;;;;;;;5093418;28;20522;-77
2023/09/15 21:56:55;;;;;;;6.57;3.83;;;;;;;;;;5093544;28;21048;-78
2023/09/15 21:59:26;;;;;;;6.17;3.90;;;;;;;;;;5089426;28;20562;-78
2023/09/15 22:02:03;;;;;;;6.70;4.63;;;;;;;;;;5086615;28;20550;-78
2023/09/15 22:04:36;;;;;;;6.97;4.60;;;;;;;;;;5104099;28;20511;-78
2023/09/15 22:07:07;;;;;;;7.53;6.30;;;;;;;;;;5086842;28;20468;-78
2023/09/15 22:09:37;;;;;;;10.90;7.63;;;;;;;;;;5085612;28;20508;-78
2023/09/15 22:12:06;;;;;;;6.00;4.03;;;;;;;;;;5082592;28;20725;-77
2023/09/15 22:14:35;;;;;;;4.83;3.50;;;;;;;;;;5081912;28;20560;-77
2023/09/15 22:17:06;;;;;;;7.30;4.40;;;;;;;;;;5084358;28;20456;-79
2023/09/15 22:19:36;;;;;;;7.50;4.23;;;;;;;;;;5085168;28;20492;-78
2023/09/15 22:22:07;;;;;;;5.90;4.00;;;;;;;;;;5084131;28;20458;-78
2023/09/15 22:24:35;;;;;;;6.73;3.53;;;;;;;;;;5089788;28;20460;-78
2023/09/15 22:27:04;;;;;;;7.90;3.97;;;;;;;;;;5096325;28;20520;-78
2023/09/15 22:29:32;;;;;;;5.63;4.13;;;;;;;;;;5103627;28;20632;-78
2023/09/15 22:32:03;;;;;;;7.03;4.47;;;;;;;;;;5104620;28;20514;-79
2023/09/15 22:34:37;;;;;;;7.03;5.03;;;;;;;;;;5100966;28;20553;-79
2023/09/15 22:37:07;;;;;;;4.80;3.47;;;;;;;;;;5090188;28;20471;-78
2023/09/15 22:39:37;;;;;;;7.30;4.50;;;;;;;;;;5100243;28;20460;-78
2023/09/15 22:45:43;;;;;;;6.27;4.30;;;;;;;;;;5939604;23;20439;31
2023/09/15 22:48:17;;;;;;;7.60;4.63;;;;;;;;;;4992514;28;20733;-74
2023/09/15 22:54:01;;;;;;;5.80;3.80;;;;;;;;;;4990992;28;20502;-74
2023/09/15 22:56:30;;;;;;;8.43;4.20;;;;;;;;;;4994798;28;20559;-74
2023/09/15 22:59:03;;;;;;;4.57;3.57;;;;;;;;;;4994843;28;20464;-75
2023/09/15 23:01:35;;;;;;;5.23;3.30;;;;;;;;;;4996671;28;20452;-75
2023/09/15 23:04:04;;;;;;;4.97;3.07;;;;;;;;;;4992655;28;20492;-74
2023/09/15 23:06:55;;;;;;;5.50;3.53;;;;;;;;;;4995090;28;20460;-73
2023/09/15 23:09:25;;;;;;;4.33;3.23;;;;;;;;;;4991811;28;20516;-75
2023/09/15 23:11:55;;;;;;;7.00;3.43;;;;;;;;;;4995347;28;20519;-75
2023/09/15 23:14:32;;;;;;;4.83;2.80;;;;;;;;;;4994797;28;20463;-76
2023/09/15 23:17:01;;;;;;;7.10;3.33;;;;;;;;;;4995259;28;20467;-75
2023/09/15 23:19:32;;;;;;;5.07;3.37;;;;;;;;;;5001272;28;20701;-77
2023/09/15 23:22:04;;;;;;;5.27;3.13;;;;;;;;;;5002917;28;20448;-74
2023/09/15 23:24:54;;;;;;;4.73;3.20;;;;;;;;;;4982317;28;20885;-74
2023/09/15 23:27:28;;;;;;;6.73;3.60;;;;;;;;;;4981169;28;20453;-76
2023/09/15 23:30:10;;;;;;;5.97;2.57;;;;;;;;;;4980251;28;20456;-74
2023/09/15 23:32:39;;;;;;;8.33;3.50;;;;;;;;;;4979287;28;20469;-76
2023/09/15 23:35:16;;;;;;;5.63;3.20;;;;;;;;;;4986216;28;20483;-74
2023/09/15 23:37:54;;;;;;;6.23;3.70;;;;;;;;;;4998019;28;20464;-77
2023/09/15 23:42:58;;;;;;;7.50;3.27;;;;;;;;;;1486209;26;20528;-78
2023/09/15 23:45:30;;;;;;;6.83;3.13;;;;;;;;;;5048314;28;20418;-78
2023/09/15 23:47:59;;;;;;;6.27;4.00;;;;;;;;;;5047153;28;20874;-79
2023/09/15 23:50:31;;;;;;;5.30;3.20;;;;;;;;;;5047057;28;20454;-78
2023/09/15 23:53:01;;;;;;;5.17;3.60;;;;;;;;;;5044488;28;20557;-79
2023/09/15 23:55:29;;;;;;;11.27;3.83;;;;;;;;;;5044534;28;20490;-78
2023/09/15 23:58:00;;;;;;;5.80;3.23;;;;;;;;;;5041986;28;20462;-78
